createdAt,value
2023-03-18T00:02:56.566Z,42.85
2023-03-18T00:06:07.282Z,43.61
2023-03-18T00:09:11.534Z,43.08
2023-03-18T00:12:14.424Z,42.63
2023-03-18T00:15:19.266Z,43.55
2023-03-18T00:18:23.512Z,43.12
2023-03-18T00:21:27.188Z,43.56
2023-03-18T00:24:30.634Z,42.89
2023-03-18T00:27:33.971Z,43.42
2023-03-18T00:30:40.072Z,44.11
2023-03-18T00:33:45.817Z,43.39
2023-03-18T00:36:50.822Z,43.63
2023-03-18T00:39:54.230Z,43.65
2023-03-18T00:43:07.883Z,43.73
2023-03-18T00:46:11.655Z,44.46
2023-03-18T00:49:17.833Z,43.77
2023-03-18T00:52:20.599Z,43.25
2023-03-18T00:55:24.042Z,43.67
2023-03-18T00:58:27.166Z,43.19
2023-03-18T01:01:31.267Z,43.48
2023-03-18T01:04:36.025Z,43.68
2023-03-18T01:07:38.742Z,43.82
2023-03-18T01:10:41.647Z,44.18
2023-03-18T01:13:44.798Z,44.55
2023-03-18T01:16:47.855Z,44.59
2023-03-18T01:19:52.281Z,44.14
2023-03-18T01:22:54.985Z,44.45
2023-03-18T01:25:58.989Z,43.85
2023-03-18T01:29:02.928Z,44.74
2023-03-18T01:32:06.465Z,43.72
2023-03-18T01:35:12.425Z,43.78
2023-03-18T01:38:15.317Z,44.22
2023-03-18T01:41:18.823Z,43.77
2023-03-18T01:44:23.378Z,44.08
2023-03-18T01:47:26.103Z,44.61
2023-03-18T01:50:33.683Z,43.99
2023-03-18T01:53:41.176Z,44.10
2023-03-18T01:56:47.561Z,44.14
2023-03-18T01:59:52.224Z,43.87
2023-03-18T02:02:55.698Z,43.60
2023-03-18T02:06:00.077Z,43.38
2023-03-18T02:09:03.994Z,43.98
2023-03-18T02:12:08.827Z,43.58
2023-03-18T02:15:14.754Z,44.31
2023-03-18T02:18:21.476Z,44.25
2023-03-18T02:21:38.716Z,43.93
2023-03-18T02:24:50.891Z,43.94
2023-03-18T02:27:59.288Z,44.13
2023-03-18T02:31:06.368Z,43.92
2023-03-18T02:34:11.707Z,43.97
2023-03-18T02:37:14.746Z,44.34
2023-03-18T02:40:19.423Z,43.34
2023-03-18T02:43:27.388Z,43.08
2023-03-18T02:46:36.430Z,44.02
2023-03-18T02:49:39.155Z,43.84
2023-03-18T02:52:42.277Z,43.07
2023-03-18T02:55:45.097Z,43.36
2023-03-18T02:58:51.655Z,43.18
2023-03-18T03:01:56.059Z,43.55
2023-03-18T03:04:58.788Z,43.15
2023-03-18T03:08:01.923Z,43.09
2023-03-18T03:11:04.993Z,42.72
2023-03-18T03:14:09.598Z,43.15
2023-03-18T03:17:12.644Z,42.92
2023-03-18T03:20:15.950Z,43.29
2023-03-18T03:23:18.953Z,43.31
2023-03-18T03:26:22.589Z,43.60
2023-03-18T03:29:26.826Z,43.60
2023-03-18T03:32:30.094Z,43.66
2023-03-18T03:35:33.581Z,43.70
2023-03-18T03:38:36.417Z,44.14
2023-03-18T03:41:39.274Z,43.84
2023-03-18T03:44:44.270Z,43.91
2023-03-18T03:47:47.482Z,44.16
2023-03-18T03:50:51.850Z,44.23
2023-03-18T03:53:54.954Z,43.01
2023-03-18T03:56:57.777Z,43.23
2023-03-18T04:00:02.235Z,43.34
2023-03-18T04:03:05.201Z,43.56
2023-03-18T04:06:08.696Z,44.37
2023-03-18T04:09:11.444Z,43.82
2023-03-18T04:12:15.081Z,43.68
2023-03-18T04:15:21.307Z,44.71
2023-03-18T04:18:24.018Z,44.92
2023-03-18T04:21:27.277Z,43.93
2023-03-18T04:24:30.040Z,44.46
2023-03-18T04:27:33.507Z,44.31
2023-03-18T04:30:37.777Z,44.16
2023-03-18T04:33:40.842Z,43.61
2023-03-18T04:36:43.709Z,44.76
2023-03-18T04:39:46.626Z,44.77
2023-03-18T04:42:49.711Z,45.02
2023-03-18T04:45:54.060Z,44.33
2023-03-18T04:48:58.346Z,44.53
2023-03-18T04:52:02.177Z,45.29
2023-03-18T04:55:05.333Z,44.99
2023-03-18T04:58:08.488Z,44.58
2023-03-18T05:01:13.114Z,45.51
2023-03-18T05:04:16.871Z,45.52
2023-03-18T05:07:20.246Z,45.13
2023-03-18T05:10:23.130Z,45.29
2023-03-18T05:13:26.029Z,45.16
2023-03-18T05:16:31.050Z,44.97
2023-03-18T05:19:33.960Z,45.29
2023-03-18T05:22:37.101Z,45.90
2023-03-18T05:25:39.847Z,45.60
2023-03-18T05:28:42.567Z,46.42
2023-03-18T05:31:46.729Z,46.45
2023-03-18T05:34:49.675Z,46.00
2023-03-18T05:37:52.629Z,45.67
2023-03-18T05:40:55.665Z,46.40
2023-03-18T05:43:58.523Z,46.37
2023-03-18T05:47:03.049Z,47.32
2023-03-18T05:50:06.357Z,47.11
2023-03-18T05:53:10.882Z,45.82
2023-03-18T05:56:14.807Z,46.14
2023-03-18T05:59:17.639Z,45.82
2023-03-18T06:02:21.800Z,46.52
2023-03-18T06:05:25.737Z,46.85
2023-03-18T06:08:28.735Z,46.06
2023-03-18T06:11:31.445Z,46.13
2023-03-18T06:14:34.211Z,47.14
2023-03-18T06:17:38.730Z,47.63
2023-03-18T06:20:41.859Z,46.12
2023-03-18T06:23:45.035Z,47.52
2023-03-18T06:26:47.918Z,47.04
2023-03-18T06:29:50.908Z,47.11
2023-03-18T06:32:55.027Z,47.06
2023-03-18T06:35:57.946Z,46.34
2023-03-18T06:39:00.671Z,46.66
2023-03-18T06:42:03.607Z,46.75
2023-03-18T06:45:07.495Z,47.36
2023-03-18T06:48:11.810Z,47.32
2023-03-18T06:51:14.936Z,47.38
2023-03-18T06:54:18.368Z,46.43
2023-03-18T06:57:21.769Z,44.88
2023-03-18T07:00:25.100Z,44.72
2023-03-18T07:03:29.219Z,43.79
2023-03-18T07:06:31.907Z,43.83
2023-03-18T07:09:34.808Z,43.24
2023-03-18T07:12:37.529Z,43.02
2023-03-18T07:15:40.334Z,42.56
2023-03-18T07:18:44.423Z,41.77
2023-03-18T07:21:47.465Z,41.67
2023-03-18T07:24:51.516Z,41.43
2023-03-18T07:27:54.413Z,41.58
2023-03-18T07:30:57.803Z,40.98
2023-03-18T07:34:01.929Z,40.46
2023-03-18T07:37:05.985Z,40.18
2023-03-18T07:40:10.084Z,39.84
2023-03-18T07:43:12.992Z,38.98
2023-03-18T07:46:15.685Z,38.90
2023-03-18T07:49:20.648Z,39.48
2023-03-18T07:52:23.510Z,39.54
2023-03-18T07:55:26.330Z,39.58
2023-03-18T07:58:29.580Z,39.18
2023-03-18T08:01:33.025Z,37.79
2023-03-18T08:04:37.790Z,37.72
2023-03-18T08:07:40.614Z,37.58
2023-03-18T08:10:43.539Z,36.97
2023-03-18T08:13:46.242Z,37.32
2023-03-18T08:16:49.624Z,37.84
2023-03-18T08:19:53.839Z,37.53
2023-03-18T08:22:57.236Z,37.45
2023-03-18T08:26:00.148Z,37.44
2023-03-18T08:29:02.939Z,37.14
2023-03-18T08:32:06.264Z,35.56
2023-03-18T08:35:11.527Z,35.56
2023-03-18T08:38:14.474Z,35.61
2023-03-18T08:41:17.902Z,36.35
2023-03-18T08:44:20.811Z,37.55
2023-03-18T08:47:25.206Z,37.61
2023-03-18T08:50:29.713Z,37.90
2023-03-18T08:53:32.518Z,38.36
2023-03-18T08:56:35.287Z,38.15
2023-03-18T08:59:38.047Z,37.93
2023-03-18T09:02:41.563Z,38.19
2023-03-18T09:05:49.033Z,38.58
2023-03-18T09:08:52.060Z,38.87
2023-03-18T09:11:54.772Z,38.05
2023-03-18T09:14:57.738Z,38.10
2023-03-18T09:18:11.551Z,37.74
2023-03-18T09:21:17.195Z,37.54
2023-03-18T09:24:19.992Z,38.05
2023-03-18T09:27:22.765Z,36.63
2023-03-18T09:30:26.503Z,36.70
2023-03-18T09:33:29.391Z,37.10
2023-03-18T09:36:33.560Z,37.52
2023-03-18T09:39:37.386Z,36.98
2023-03-18T09:42:52.383Z,37.11
2023-03-18T09:46:03.270Z,36.03
2023-03-18T09:49:39.082Z,36.06
2023-03-18T09:52:47.906Z,34.85
2023-03-18T09:55:55.827Z,35.34
2023-03-18T09:59:03.336Z,34.61
2023-03-18T10:02:19.637Z,35.50
2023-03-18T10:05:28.784Z,35.29
2023-03-18T10:08:45.002Z,35.92
2023-03-18T10:11:49.819Z,35.68
2023-03-18T10:15:02.492Z,34.99
2023-03-18T10:18:12.798Z,36.48
2023-03-18T10:21:28.079Z,36.15
2023-03-18T10:24:38.982Z,36.35
2023-03-18T10:27:50.448Z,35.19
2023-03-18T10:31:02.692Z,34.91
2023-03-18T10:34:11.483Z,34.23
2023-03-18T10:40:27.031Z,32.88
2023-03-18T10:43:32.702Z,33.11
2023-03-18T10:49:43.405Z,32.16
2023-03-18T10:52:52.869Z,33.41
2023-03-18T10:56:04.496Z,33.95
2023-03-18T10:59:12.958Z,34.24
2023-03-18T11:02:20.668Z,34.61
2023-03-18T11:05:26.097Z,34.93
2023-03-18T11:08:34.395Z,35.15
2023-03-18T11:11:41.496Z,35.95
2023-03-18T11:14:48.574Z,36.69
2023-03-18T11:17:52.390Z,35.83
2023-03-18T11:21:00.638Z,35.74
2023-03-18T11:24:10.599Z,34.84
2023-03-18T11:27:30.805Z,33.31
2023-03-18T11:30:45.229Z,34.17
2023-03-18T11:33:48.341Z,34.70
2023-03-18T11:36:58.840Z,35.80
2023-03-18T11:40:20.622Z,35.86
2023-03-18T11:43:25.709Z,36.17
2023-03-18T11:46:33.239Z,35.74
2023-03-18T11:49:36.147Z,35.41
2023-03-18T11:52:45.138Z,34.08
2023-03-18T11:55:51.826Z,33.96
2023-03-18T11:59:17.535Z,35.35
2023-03-18T12:02:32.029Z,35.14
2023-03-18T12:05:48.250Z,35.02
2023-03-18T12:09:01.703Z,34.80
2023-03-18T12:12:19.790Z,35.46
2023-03-18T12:15:38.745Z,35.45
2023-03-18T12:19:14.074Z,35.82
2023-03-18T12:22:30.260Z,36.23
2023-03-18T12:26:01.373Z,35.53
2023-03-18T12:29:38.493Z,36.13
2023-03-18T12:32:47.297Z,37.02
2023-03-18T12:35:57.354Z,36.46
2023-03-18T12:39:41.869Z,36.73
2023-03-18T12:42:58.238Z,36.79
2023-03-18T12:46:05.353Z,37.79
2023-03-18T12:49:16.856Z,38.10
2023-03-18T12:52:28.642Z,38.58
2023-03-18T12:55:34.771Z,38.69
2023-03-18T12:58:40.771Z,37.73
2023-03-18T13:01:50.082Z,37.43
2023-03-18T13:04:58.993Z,37.64
2023-03-18T13:08:25.352Z,37.86
2023-03-18T13:11:56.581Z,37.80
2023-03-18T13:15:02.322Z,38.15
2023-03-18T13:18:14.669Z,38.72
2023-03-18T13:21:22.872Z,38.03
2023-03-18T13:24:44.101Z,38.23
2023-03-18T13:28:09.673Z,39.06
2023-03-18T13:31:23.313Z,39.43
2023-03-18T13:34:41.054Z,39.45
2023-03-18T13:38:04.250Z,39.39
2023-03-18T13:41:22.360Z,39.76
2023-03-18T13:44:32.773Z,38.71
2023-03-18T13:47:38.812Z,39.40
2023-03-18T13:50:43.950Z,39.51
2023-03-18T13:53:50.613Z,39.39
2023-03-18T13:56:55.928Z,39.31
2023-03-18T14:00:22.605Z,39.99
2023-03-18T14:03:29.872Z,41.45
2023-03-18T14:06:55.325Z,41.91
2023-03-18T14:10:19.666Z,42.08
2023-03-18T14:13:28.388Z,41.34
2023-03-18T14:16:49.349Z,42.32
2023-03-18T14:19:55.188Z,42.28
2023-03-18T14:23:19.071Z,41.66
2023-03-18T14:26:26.444Z,42.14
2023-03-18T14:29:36.111Z,41.92
2023-03-18T14:32:40.858Z,41.84
2023-03-18T14:35:51.671Z,41.58
2023-03-18T14:39:03.050Z,41.68
2023-03-18T14:42:17.647Z,41.13
2023-03-18T14:45:25.934Z,41.77
2023-03-18T14:48:31.750Z,42.59
2023-03-18T14:51:35.367Z,42.53
2023-03-18T14:54:43.672Z,42.89
2023-03-18T14:57:47.888Z,42.88
2023-03-18T15:00:54.198Z,42.43
2023-03-18T15:03:57.423Z,42.18
2023-03-18T15:07:05.649Z,42.44
2023-03-18T15:10:11.556Z,42.82
2023-03-18T15:13:18.847Z,42.73
2023-03-18T15:16:25.214Z,43.26
2023-03-18T15:19:29.785Z,43.65
2023-03-18T15:22:34.761Z,43.83
2023-03-18T15:25:39.901Z,43.33
2023-03-18T15:28:47.701Z,43.46
2023-03-18T15:31:51.084Z,43.27
2023-03-18T15:34:56.575Z,42.95
2023-03-18T15:38:14.234Z,41.71
2023-03-18T15:41:21.631Z,42.52
2023-03-18T15:44:28.788Z,43.18
2023-03-18T15:47:33.609Z,43.18
2023-03-18T15:50:37.244Z,42.94
2023-03-18T15:53:42.637Z,42.74
2023-03-18T15:56:47.671Z,43.05
2023-03-18T15:59:51.768Z,43.64
2023-03-18T16:02:54.836Z,43.92
2023-03-18T16:05:58.923Z,44.00
2023-03-18T16:09:01.735Z,44.39
2023-03-18T16:12:14.354Z,44.25
2023-03-18T16:15:22.124Z,44.67
2023-03-18T16:18:25.327Z,44.76
2023-03-18T16:21:28.258Z,44.70
2023-03-18T16:24:31.573Z,44.68
2023-03-18T16:27:39.400Z,45.31
2023-03-18T16:30:43.490Z,45.14
2023-03-18T16:33:47.416Z,45.67
2023-03-18T16:36:52.088Z,45.87
2023-03-18T16:39:55.998Z,46.27
2023-03-18T16:42:58.912Z,46.54
2023-03-18T16:46:05.540Z,46.92
2023-03-18T16:49:14.827Z,47.06
2023-03-18T16:52:18.025Z,47.74
2023-03-18T16:55:21.258Z,48.00
2023-03-18T16:58:29.110Z,48.45
2023-03-18T17:01:33.612Z,48.65
2023-03-18T17:04:37.927Z,48.99
2023-03-18T17:07:40.940Z,49.39
2023-03-18T17:10:44.804Z,49.93
2023-03-18T17:13:48.668Z,50.25
2023-03-18T17:16:53.009Z,50.95
2023-03-18T17:19:57.236Z,51.27
2023-03-18T17:23:00.781Z,51.56
2023-03-18T17:26:04.705Z,52.72
2023-03-18T17:29:08.473Z,52.47
2023-03-18T17:32:12.594Z,52.45
2023-03-18T17:35:17.837Z,53.66
2023-03-18T17:38:21.643Z,53.67
2023-03-18T17:41:24.532Z,53.65
2023-03-18T17:44:30.281Z,53.54
2023-03-18T17:47:34.678Z,54.07
2023-03-18T17:50:37.693Z,53.93
2023-03-18T17:53:42.741Z,54.80
2023-03-18T17:56:45.874Z,55.55
2023-03-18T17:59:48.649Z,55.57
2023-03-18T18:02:54.498Z,55.84
2023-03-18T18:05:58.490Z,56.18
2023-03-18T18:09:02.467Z,56.54
2023-03-18T18:12:05.840Z,56.43
2023-03-18T18:15:19.340Z,56.56
2023-03-18T18:18:25.406Z,56.37
2023-03-18T18:21:28.160Z,56.86
2023-03-18T18:24:33.444Z,56.84
2023-03-18T18:27:36.472Z,58.17
2023-03-18T18:30:39.848Z,58.30
2023-03-18T18:33:45.600Z,58.63
2023-03-18T18:36:49.494Z,58.30
2023-03-18T18:39:52.495Z,58.47
2023-03-18T18:42:55.421Z,58.44
2023-03-18T18:45:59.040Z,58.80
2023-03-18T18:49:03.392Z,59.59
2023-03-18T18:52:07.287Z,59.38
2023-03-18T18:55:11.519Z,59.23
2023-03-18T18:58:17.893Z,59.27
2023-03-18T19:01:20.971Z,59.72
2023-03-18T19:04:25.332Z,60.38
2023-03-18T19:07:29.236Z,59.88
2023-03-18T19:10:32.369Z,60.04
2023-03-18T19:13:37.728Z,60.17
2023-03-18T19:16:40.596Z,60.39
2023-03-18T19:19:45.679Z,60.81
2023-03-18T19:22:50.532Z,61.33
2023-03-18T19:25:54.099Z,61.17
2023-03-18T19:28:59.619Z,61.37
2023-03-18T19:32:08.116Z,60.88
2023-03-18T19:35:14.223Z,61.05
2023-03-18T19:38:21.275Z,61.72
2023-03-18T19:41:24.074Z,61.36
2023-03-18T19:44:27.898Z,61.46
2023-03-18T19:47:31.628Z,62.11
2023-03-18T19:50:35.730Z,61.59
2023-03-18T19:53:38.613Z,61.81
2023-03-18T19:56:41.574Z,61.59
2023-03-18T19:59:46.264Z,62.14
2023-03-18T20:02:50.806Z,61.95
2023-03-18T20:05:54.886Z,62.86
2023-03-18T20:08:57.578Z,62.64
2023-03-18T20:12:04.726Z,63.07
2023-03-18T20:15:13.010Z,62.65
2023-03-18T20:18:17.794Z,62.77
2023-03-18T20:21:28.019Z,63.52
2023-03-18T20:24:30.843Z,63.73
2023-03-18T20:27:33.687Z,63.30
2023-03-18T20:30:37.781Z,63.90
2023-03-18T20:33:40.730Z,64.56
2023-03-18T20:36:44.962Z,64.11
2023-03-18T20:39:47.791Z,64.31
2023-03-18T20:42:52.748Z,63.12
2023-03-18T20:45:57.485Z,63.55
2023-03-18T20:49:00.232Z,63.18
2023-03-18T20:52:05.819Z,63.23
2023-03-18T20:55:21.470Z,61.91
2023-03-18T20:58:25.456Z,62.29
2023-03-18T21:01:28.185Z,61.96
2023-03-18T21:04:31.306Z,62.23
2023-03-18T21:07:35.548Z,61.51
2023-03-18T21:10:38.885Z,60.75
2023-03-18T21:13:42.844Z,61.70
2023-03-18T21:16:46.164Z,61.67
2023-03-18T21:19:49.898Z,61.13
2023-03-18T21:22:56.237Z,60.79
2023-03-18T21:25:59.542Z,60.39
2023-03-18T21:29:02.336Z,62.75
2023-03-18T21:32:05.469Z,62.16
2023-03-18T21:35:15.826Z,62.26
2023-03-18T21:38:20.105Z,61.98
2023-03-18T21:41:27.146Z,61.95
2023-03-18T21:44:30.128Z,62.13
2023-03-18T21:47:32.885Z,62.64
2023-03-18T21:50:36.151Z,62.40
2023-03-18T21:53:40.338Z,62.29
2023-03-18T21:56:43.173Z,62.73
2023-03-18T21:59:46.648Z,62.00
2023-03-18T22:02:50.476Z,62.59
2023-03-18T22:05:54.508Z,61.21
2023-03-18T22:08:58.649Z,61.95
2023-03-18T22:12:01.377Z,61.86
2023-03-18T22:15:05.589Z,61.67
2023-03-18T22:18:08.483Z,61.97
2023-03-18T22:21:15.469Z,62.07
2023-03-18T22:24:19.702Z,62.52
2023-03-18T22:27:25.374Z,61.54
2023-03-18T22:30:30.796Z,63.37
2023-03-18T22:33:34.733Z,62.89
2023-03-18T22:36:37.542Z,63.73
2023-03-18T22:39:42.979Z,63.45
2023-03-18T22:42:47.448Z,63.83
2023-03-18T22:45:50.387Z,64.11
2023-03-18T22:48:53.280Z,63.83
2023-03-18T22:51:56.292Z,63.55
2023-03-18T22:55:02.782Z,63.26
2023-03-18T22:58:06.163Z,62.93
2023-03-18T23:01:10.606Z,62.55
2023-03-18T23:04:13.693Z,63.09
2023-03-18T23:07:31.366Z,63.52
2023-03-18T23:10:36.315Z,64.14
2023-03-18T23:13:41.657Z,64.81
2023-03-18T23:16:44.352Z,64.36
2023-03-18T23:19:47.406Z,64.01
2023-03-18T23:22:50.264Z,64.38
2023-03-18T23:25:54.404Z,63.87
2023-03-18T23:28:57.373Z,64.23
2023-03-18T23:32:00.631Z,64.00
2023-03-18T23:35:03.648Z,64.00
2023-03-18T23:38:07.242Z,62.62
2023-03-18T23:41:11.575Z,64.22
2023-03-18T23:44:14.481Z,63.87
2023-03-18T23:47:17.469Z,63.75
2023-03-18T23:50:20.499Z,63.39
2023-03-18T23:53:23.397Z,63.40
2023-03-18T23:56:27.627Z,63.74
2023-03-18T23:59:31.206Z,63.32
